createdAt,value
2023-02-22T00:04:29.504Z,7.76
2023-02-22T00:09:29.466Z,7.68
2023-02-22T00:14:29.391Z,7.71
2023-02-22T00:19:29.315Z,7.66
2023-02-22T00:24:29.246Z,7.46
2023-02-22T00:29:34.505Z,7.47
2023-02-22T00:34:29.155Z,7.40
2023-02-22T00:39:29.053Z,7.36
2023-02-22T00:44:29.342Z,7.25
2023-02-22T00:49:28.973Z,7.08
2023-02-22T00:54:28.882Z,6.93
2023-02-22T00:59:28.837Z,6.79
2023-02-22T01:04:28.797Z,6.65
2023-02-22T01:09:28.747Z,6.52
2023-02-22T01:14:28.681Z,6.19
2023-02-22T01:19:28.577Z,6.03
2023-02-22T01:24:28.508Z,5.80
2023-02-22T01:29:28.496Z,5.58
2023-02-22T01:34:28.425Z,5.36
2023-02-22T01:39:28.301Z,5.18
2023-02-22T01:44:28.223Z,4.96
2023-02-22T01:49:28.211Z,4.91
2023-02-22T01:54:28.120Z,4.77
2023-02-22T01:59:28.124Z,4.61
2023-02-22T02:04:28.038Z,4.53
2023-02-22T02:09:27.938Z,4.34
2023-02-22T02:14:27.899Z,4.20
2023-02-22T02:19:27.835Z,4.12
2023-02-22T02:24:27.759Z,4.02
2023-02-22T02:29:27.694Z,3.96
2023-02-22T02:34:27.636Z,3.84
2023-02-22T02:39:27.568Z,3.82
2023-02-22T02:44:27.523Z,3.73
2023-02-22T02:49:27.431Z,3.60
2023-02-22T02:54:27.381Z,3.37
2023-02-22T02:59:27.347Z,3.35
2023-02-22T03:04:27.279Z,3.26
2023-02-22T03:09:27.225Z,3.20
2023-02-22T03:14:27.133Z,3.08
2023-02-22T03:19:27.043Z,2.93
2023-02-22T03:24:26.996Z,2.81
2023-02-22T03:29:26.948Z,2.79
2023-02-22T03:34:26.896Z,2.71
2023-02-22T03:39:26.828Z,2.69
2023-02-22T03:44:26.781Z,2.60
2023-02-22T03:49:26.693Z,2.55
2023-02-22T03:54:26.636Z,2.54
2023-02-22T03:59:26.585Z,2.51
2023-02-22T04:04:26.579Z,2.45
2023-02-22T04:09:26.456Z,2.47
2023-02-22T04:14:27.625Z,2.51
2023-02-22T04:19:26.361Z,2.55
2023-02-22T04:24:26.286Z,2.55
2023-02-22T04:29:26.231Z,2.53
2023-02-22T04:34:26.146Z,2.54
2023-02-22T04:39:26.103Z,2.48
2023-02-22T04:44:26.045Z,2.39
2023-02-22T04:49:25.964Z,2.29
2023-02-22T04:54:25.921Z,2.19
2023-02-22T04:59:25.844Z,2.15
2023-02-22T05:04:25.819Z,2.04
2023-02-22T05:09:25.719Z,2.01
2023-02-22T05:14:25.674Z,1.92
2023-02-22T05:19:25.607Z,1.85
2023-02-22T05:24:25.513Z,1.75
2023-02-22T05:29:25.457Z,1.75
2023-02-22T05:34:25.430Z,1.63
2023-02-22T05:39:25.348Z,1.66
2023-02-22T05:44:25.274Z,1.74
2023-02-22T05:49:25.238Z,1.82
2023-02-22T05:54:25.165Z,1.87
2023-02-22T05:59:26.054Z,1.91
2023-02-22T06:04:25.030Z,1.93
2023-02-22T06:09:24.979Z,1.91
2023-02-22T06:14:24.942Z,1.93
2023-02-22T06:19:24.860Z,2.03
2023-02-22T06:24:24.765Z,2.04
2023-02-22T06:29:24.750Z,2.07
2023-02-22T06:34:24.666Z,2.10
2023-02-22T06:39:24.578Z,2.18
2023-02-22T06:44:24.548Z,2.18
2023-02-22T06:49:24.532Z,2.29
2023-02-22T06:54:24.439Z,2.24
2023-02-22T06:59:24.336Z,2.32
2023-02-22T07:04:24.353Z,2.37
2023-02-22T07:09:24.240Z,2.42
2023-02-22T07:14:24.193Z,2.48
2023-02-22T07:19:24.090Z,2.57
2023-02-22T07:24:24.095Z,2.72
2023-02-22T07:29:23.978Z,2.87
2023-02-22T07:34:23.923Z,2.99
2023-02-22T07:39:23.876Z,3.14
2023-02-22T07:44:23.771Z,3.25
2023-02-22T07:49:23.762Z,3.54
2023-02-22T07:54:23.663Z,3.80
2023-02-22T07:59:23.598Z,4.12
2023-02-22T08:04:23.560Z,4.48
2023-02-22T08:09:23.539Z,4.78
2023-02-22T08:14:23.440Z,4.98
2023-02-22T08:19:23.398Z,5.14
2023-02-22T08:24:23.300Z,5.39
2023-02-22T08:29:23.234Z,5.69
2023-02-22T08:34:23.177Z,5.95
2023-02-22T08:39:23.099Z,6.11
2023-02-22T08:44:23.034Z,6.40
2023-02-22T08:49:23.965Z,6.67
2023-02-22T08:54:22.939Z,6.97
2023-02-22T08:59:22.858Z,7.31
2023-02-22T09:04:22.815Z,7.60
2023-02-22T09:09:22.729Z,7.77
2023-02-22T09:14:22.656Z,7.94
2023-02-22T09:19:22.600Z,8.10
2023-02-22T09:24:22.568Z,8.32
2023-02-22T09:29:22.507Z,8.55
2023-02-22T09:34:22.400Z,8.77
2023-02-22T09:39:22.514Z,8.99
2023-02-22T09:44:22.543Z,9.32
2023-02-22T09:49:22.254Z,9.54
2023-02-22T09:54:22.185Z,9.84
2023-02-22T09:59:22.117Z,10.23
2023-02-22T10:04:22.072Z,10.60
2023-02-22T10:09:21.968Z,10.85
2023-02-22T10:14:21.928Z,11.01
2023-02-22T10:19:21.877Z,11.25
2023-02-22T10:24:21.766Z,11.41
2023-02-22T10:29:21.733Z,11.67
2023-02-22T10:34:21.653Z,11.97
2023-02-22T10:39:21.642Z,12.28
2023-02-22T10:44:21.547Z,12.46
2023-02-22T10:49:21.484Z,12.79
2023-02-22T10:54:21.411Z,13.16
2023-02-22T10:59:21.381Z,13.63
2023-02-22T11:04:21.263Z,13.76
2023-02-22T11:09:21.209Z,13.90
2023-02-22T11:14:21.132Z,14.00
2023-02-22T11:19:21.082Z,14.15
2023-02-22T11:25:01.234Z,14.18
2023-02-22T11:29:55.907Z,14.23
2023-02-22T11:35:08.461Z,14.28
2023-02-22T11:39:56.758Z,14.52
2023-02-22T11:44:55.730Z,14.61
2023-02-22T11:49:55.672Z,14.90
2023-02-22T11:54:55.569Z,14.97
2023-02-22T11:59:55.507Z,15.10
2023-02-22T12:04:55.618Z,15.19
2023-02-22T12:09:55.381Z,15.41
2023-02-22T12:14:55.534Z,15.78
2023-02-22T12:19:55.246Z,16.16
2023-02-22T12:25:03.998Z,16.17
2023-02-22T12:29:56.122Z,16.17
2023-02-22T12:34:55.054Z,16.10
2023-02-22T12:39:54.985Z,16.29
2023-02-22T12:44:54.910Z,16.54
2023-02-22T12:49:54.880Z,16.43
2023-02-22T12:54:54.802Z,16.55
2023-02-22T12:59:54.747Z,16.69
2023-02-22T13:04:54.688Z,16.79
2023-02-22T13:09:54.613Z,16.91
2023-02-22T13:14:54.541Z,17.16
2023-02-22T13:19:54.534Z,17.14
2023-02-22T13:24:54.409Z,17.31
2023-02-22T13:29:56.185Z,17.53
2023-02-22T13:34:54.326Z,17.32
2023-02-22T13:39:54.239Z,17.25
2023-02-22T13:44:54.161Z,16.95
2023-02-22T13:49:54.114Z,17.28
2023-02-22T13:54:54.086Z,16.94
2023-02-22T13:59:54.012Z,16.91
2023-02-22T14:04:53.998Z,16.77
2023-02-22T14:09:53.824Z,16.74
2023-02-22T14:14:57.096Z,16.55
2023-02-22T14:19:53.756Z,16.37
2023-02-22T14:24:53.707Z,16.24
2023-02-22T14:29:53.639Z,16.33
2023-02-22T14:34:53.539Z,16.36
2023-02-22T14:39:53.462Z,16.24
2023-02-22T14:44:53.380Z,16.06
2023-02-22T14:49:53.342Z,16.02
2023-02-22T14:54:53.276Z,15.91
2023-02-22T14:59:53.218Z,15.77
2023-02-22T15:04:53.268Z,15.65
2023-02-22T15:09:53.075Z,15.52
2023-02-22T15:14:53.024Z,15.50
2023-02-22T15:19:52.947Z,15.45
2023-02-22T15:24:52.880Z,15.36
2023-02-22T15:29:52.812Z,15.32
2023-02-22T15:34:52.750Z,15.23
2023-02-22T15:39:52.684Z,15.14
2023-02-22T15:44:57.998Z,15.07
2023-02-22T15:49:52.554Z,15.05
2023-02-22T15:54:52.493Z,14.92
2023-02-22T15:59:52.415Z,14.83
2023-02-22T16:04:59.559Z,14.73
2023-02-22T16:09:53.290Z,14.52
2023-02-22T16:14:56.219Z,14.51
2023-02-22T16:19:52.169Z,14.44
2023-02-22T16:24:52.164Z,14.31
2023-02-22T16:29:52.066Z,14.19
2023-02-22T16:34:52.019Z,14.11
2023-02-22T16:39:51.918Z,14.00
2023-02-22T16:44:57.211Z,13.83
2023-02-22T16:49:51.793Z,13.67
2023-02-22T16:54:51.732Z,13.47
2023-02-22T16:59:51.683Z,13.36
2023-02-22T17:04:51.613Z,13.30
2023-02-22T17:09:51.575Z,13.19
2023-02-22T17:14:51.509Z,13.08
2023-02-22T17:19:51.445Z,12.88
2023-02-22T17:24:51.338Z,12.62
2023-02-22T17:29:51.297Z,12.44
2023-02-22T17:34:51.253Z,12.25
2023-02-22T17:39:51.171Z,12.11
2023-02-22T17:44:51.104Z,12.03
2023-02-22T17:49:51.043Z,11.82
2023-02-22T17:54:50.998Z,11.76
2023-02-22T17:59:50.895Z,11.66
2023-02-22T18:04:50.854Z,11.62
2023-02-22T18:09:50.790Z,11.56
2023-02-22T18:14:50.715Z,11.51
2023-02-22T18:19:50.736Z,11.43
2023-02-22T18:24:50.587Z,11.40
2023-02-22T18:29:50.905Z,11.38
2023-02-22T18:34:50.513Z,11.36
2023-02-22T18:39:50.451Z,11.34
2023-02-22T18:44:50.358Z,11.30
2023-02-22T18:49:50.285Z,11.31
2023-02-22T18:54:50.225Z,11.30
2023-02-22T18:59:56.958Z,11.28
2023-02-22T19:04:50.088Z,11.20
2023-02-22T19:09:50.053Z,11.19
2023-02-22T19:14:50.002Z,11.15
2023-02-22T19:19:49.926Z,11.09
2023-02-22T19:24:49.833Z,11.08
2023-02-22T19:29:49.799Z,11.05
2023-02-22T19:34:49.699Z,10.94
2023-02-22T19:39:49.633Z,10.86
2023-02-22T19:44:49.592Z,10.80
2023-02-22T19:49:49.508Z,10.75
2023-02-22T19:54:49.454Z,10.65
2023-02-22T19:59:49.398Z,10.58
2023-02-22T20:04:49.362Z,10.49
2023-02-22T20:09:49.290Z,10.46
2023-02-22T20:14:49.195Z,10.45
2023-02-22T20:19:49.152Z,10.41
2023-02-22T20:24:49.081Z,10.38
2023-02-22T20:29:49.005Z,10.38
2023-02-22T20:34:48.957Z,10.34
2023-02-22T20:39:48.877Z,10.34
2023-02-22T20:44:48.858Z,10.30
2023-02-22T20:49:48.761Z,10.34
2023-02-22T20:54:48.720Z,10.21
2023-02-22T20:59:48.691Z,10.18
2023-02-22T21:04:48.595Z,10.18
2023-02-22T21:09:48.512Z,10.14
2023-02-22T21:14:48.476Z,10.10
2023-02-22T21:19:48.379Z,10.06
2023-02-22T21:24:48.323Z,9.94
2023-02-22T21:29:48.270Z,9.78
2023-02-22T21:34:48.196Z,9.51
2023-02-22T21:39:48.191Z,9.30
2023-02-22T21:44:48.089Z,9.01
2023-02-22T21:49:48.011Z,8.92
2023-02-22T21:54:47.983Z,8.75
2023-02-22T21:59:47.858Z,8.63
2023-02-22T22:04:47.820Z,8.56
2023-02-22T22:09:47.765Z,8.42
2023-02-22T22:14:48.024Z,8.34
2023-02-22T22:19:47.621Z,8.19
2023-02-22T22:24:47.533Z,8.09
2023-02-22T22:29:47.507Z,7.98
2023-02-22T22:34:47.421Z,7.91
2023-02-22T22:39:47.375Z,7.83
2023-02-22T22:44:47.293Z,7.81
2023-02-22T22:49:47.233Z,7.77
2023-02-22T22:54:47.190Z,7.76
2023-02-22T22:59:47.117Z,7.69
2023-02-22T23:04:47.033Z,7.57
2023-02-22T23:09:46.972Z,7.57
2023-02-22T23:14:46.888Z,7.54
2023-02-22T23:19:47.598Z,7.50
2023-02-22T23:24:46.795Z,7.40
2023-02-22T23:29:47.134Z,7.43
2023-02-22T23:34:46.596Z,7.36
2023-02-22T23:39:46.544Z,7.22
2023-02-22T23:44:46.479Z,7.24
2023-02-22T23:49:46.422Z,7.16
2023-02-22T23:54:46.353Z,7.13
2023-02-22T23:59:46.261Z,7.11
